Time;durP1;ratioP1;P1;durP2;ratioP2;P2;SDS_P1;SDS_P2;PMS_P1;PMS_P2;Temp;Humidity;BMP_temperature;BMP_pressure;BME280_temperature;BME280_humidity;BME280_pressure;Samples;Min_cycle;Max_cycle;Signal;HPM_P1;HPM_P2
2021/01/25 00:00:55;;;;;;;6.55;4.53;;;19.20;41.00;;;;;;4835979;29;20030;-81
2021/01/25 00:03:20;;;;;;;6.50;4.68;;;19.10;41.00;;;;;;4835191;29;20029;-80
2021/01/25 00:05:46;;;;;;;5.93;4.25;;;19.10;41.00;;;;;;4842842;29;20503;-80
2021/01/25 00:08:12;;;;;;;6.03;4.65;;;19.10;41.00;;;;;;4834889;29;20126;-80
2021/01/25 00:10:37;;;;;;;5.43;4.20;;;19.10;41.10;;;;;;4837102;29;20034;-80
2021/01/25 00:13:03;;;;;;;6.35;4.50;;;19.10;40.90;;;;;;4828272;29;20041;-80
2021/01/25 00:15:35;;;;;;;6.10;4.57;;;19.10;40.90;;;;;;4837100;29;20106;-80
2021/01/25 00:18:00;;;;;;;6.60;4.88;;;19.10;40.80;;;;;;4814221;29;20042;-79
2021/01/25 00:20:26;;;;;;;7.35;4.72;;;19.10;40.90;;;;;;4825549;29;20038;-78
2021/01/25 00:22:51;;;;;;;6.63;5.15;;;19.00;40.70;;;;;;4798959;29;20503;-79
2021/01/25 00:25:17;;;;;;;6.47;4.60;;;19.00;40.80;;;;;;4825003;29;20073;-80
2021/01/25 00:27:42;;;;;;;6.47;4.50;;;19.10;40.80;;;;;;4809470;29;20045;-80
2021/01/25 00:30:14;;;;;;;8.25;5.22;;;19.00;40.80;;;;;;4827212;29;20399;-80
2021/01/25 00:32:40;;;;;;;7.28;4.97;;;19.00;40.90;;;;;;4806525;29;20039;-80
2021/01/25 00:35:05;;;;;;;6.45;4.75;;;19.00;40.90;;;;;;4839760;29;20037;-80
2021/01/25 00:37:46;;;;;;;4.97;4.47;;;19.00;40.90;;;;;;4836479;29;20071;-80
2021/01/25 00:40:12;;;;;;;4.45;4.00;;;19.00;40.90;;;;;;4802771;29;20038;-79
2021/01/25 00:42:38;;;;;;;6.53;4.30;;;19.00;41.00;;;;;;4831659;29;20403;-80
2021/01/25 00:45:05;;;;;;;7.00;4.60;;;19.00;41.00;;;;;;4815572;29;20052;-80
2021/01/25 00:47:30;;;;;;;6.13;4.43;;;18.90;41.00;;;;;;4816063;29;20022;-82
2021/01/25 00:49:56;;;;;;;6.35;4.63;;;18.90;41.50;;;;;;4834455;29;20133;-82
2021/01/25 00:52:21;;;;;;;7.68;5.35;;;18.90;40.90;;;;;;4831388;29;20031;-82
2021/01/25 00:54:47;;;;;;;5.03;3.75;;;18.90;40.90;;;;;;4829408;29;20034;-82
2021/01/25 00:57:13;;;;;;;5.43;4.40;;;18.90;41.00;;;;;;4811752;29;20054;-69
2021/01/25 00:59:38;;;;;;;6.30;5.05;;;18.90;40.90;;;;;;4824043;29;20030;-70
2021/01/25 01:02:04;;;;;;;7.50;4.75;;;18.90;40.80;;;;;;4808373;29;20043;-70
2021/01/25 01:04:29;;;;;;;6.78;4.97;;;18.90;40.90;;;;;;4787694;29;20050;-69
2021/01/25 01:06:55;;;;;;;9.52;4.88;;;18.90;41.40;;;;;;4822795;29;20589;-69
2021/01/25 01:09:21;;;;;;;8.10;5.10;;;18.80;40.90;;;;;;4793338;29;20038;-70
2021/01/25 01:11:46;;;;;;;6.25;4.55;;;18.80;40.90;;;;;;4792429;29;20065;-70
2021/01/25 01:14:12;;;;;;;5.18;4.32;;;18.80;40.80;;;;;;4808063;29;20031;-70
2021/01/25 01:16:37;;;;;;;7.07;5.05;;;18.80;40.90;;;;;;4792412;29;20030;-70
2021/01/25 01:19:03;;;;;;;5.45;4.50;;;18.80;40.90;;;;;;4778043;29;20062;-70
2021/01/25 01:21:28;;;;;;;8.13;5.30;;;18.80;40.90;;;;;;4783395;29;20027;-69
2021/01/25 01:23:54;;;;;;;6.50;5.07;;;18.80;40.80;;;;;;4775083;29;20596;-70
2021/01/25 01:26:20;;;;;;;5.95;4.40;;;18.80;40.80;;;;;;4814550;29;20038;-69
2021/01/25 01:28:45;;;;;;;5.65;4.57;;;18.80;40.90;;;;;;4807655;29;20046;-69
2021/01/25 01:31:11;;;;;;;6.65;5.10;;;18.70;40.90;;;;;;4790034;29;20027;-69
2021/01/25 01:33:36;;;;;;;7.10;5.20;;;18.70;40.80;;;;;;4815082;29;20031;-69
2021/01/25 01:36:03;;;;;;;6.05;4.32;;;18.70;40.90;;;;;;4807821;29;20038;-69
2021/01/25 01:38:29;;;;;;;11.13;4.47;;;18.70;40.80;;;;;;4792973;29;20519;-69
2021/01/25 01:40:58;;;;;;;5.22;4.72;;;18.70;40.70;;;;;;4808027;29;20059;-69
2021/01/25 01:43:24;;;;;;;4.93;4.15;;;18.70;40.90;;;;;;4774516;29;20046;-69
2021/01/25 01:45:49;;;;;;;8.00;4.57;;;18.70;40.90;;;;;;4807539;29;20034;-69
2021/01/25 01:48:15;;;;;;;6.30;4.50;;;18.70;40.80;;;;;;4807460;29;20053;-69
2021/01/25 01:50:40;;;;;;;8.77;5.28;;;18.70;40.90;;;;;;4792138;29;20041;-69
2021/01/25 01:53:06;;;;;;;8.07;5.03;;;18.70;40.90;;;;;;4799805;29;20035;-69
2021/01/25 01:55:32;;;;;;;8.63;5.80;;;18.70;40.90;;;;;;4792527;29;20041;-69
2021/01/25 01:57:57;;;;;;;6.57;5.10;;;18.60;40.80;;;;;;4791874;29;20053;-68
2021/01/25 02:00:23;;;;;;;6.80;4.75;;;18.60;40.90;;;;;;4776355;29;20403;-69
2021/01/25 02:02:55;;;;;;;6.03;4.72;;;18.60;40.80;;;;;;4805476;29;20106;-69
2021/01/25 02:05:20;;;;;;;5.72;4.13;;;18.60;41.50;;;;;;4792136;29;20099;-69
2021/01/25 02:07:50;;;;;;;5.70;4.47;;;18.60;40.90;;;;;;4777191;29;20050;-69
2021/01/25 02:10:16;;;;;;;5.85;4.20;;;18.60;41.40;;;;;;4806958;29;20026;-70
2021/01/25 02:12:41;;;;;;;5.38;3.67;;;18.60;41.10;;;;;;4806815;29;20518;-69
2021/01/25 02:15:07;;;;;;;6.53;4.47;;;18.60;40.90;;;;;;4823033;29;20443;-70
2021/01/25 02:17:33;;;;;;;5.25;3.42;;;18.60;41.00;;;;;;4823810;29;20042;-69
2021/01/25 02:20:05;;;;;;;3.95;3.45;;;18.60;40.90;;;;;;4823632;29;20042;-69
2021/01/25 02:22:37;;;;;;;4.25;3.20;;;18.60;40.90;;;;;;4822928;29;20495;-69
2021/01/25 02:25:08;;;;;;;4.82;3.55;;;18.60;40.90;;;;;;4821096;29;20031;-69
2021/01/25 02:27:35;;;;;;;4.03;3.63;;;18.50;40.90;;;;;;4820636;29;20046;-70
2021/01/25 02:30:05;;;;;;;3.83;3.30;;;18.50;40.90;;;;;;4806530;29;20484;-69
2021/01/25 02:32:31;;;;;;;5.07;3.63;;;18.50;40.80;;;;;;4823273;29;20030;-69
2021/01/25 02:34:57;;;;;;;5.38;3.33;;;18.50;40.80;;;;;;4823307;29;20096;-69
2021/01/25 02:37:23;;;;;;;4.15;3.60;;;18.50;40.80;;;;;;4779872;29;20039;-69
2021/01/25 02:39:50;;;;;;;5.40;3.60;;;18.50;40.90;;;;;;4819755;29;20065;-69
2021/01/25 02:42:16;;;;;;;6.75;3.47;;;18.50;41.00;;;;;;4793688;29;20023;-69
2021/01/25 02:44:41;;;;;;;4.15;3.67;;;18.50;40.90;;;;;;4807472;29;20057;-70
2021/01/25 02:47:07;;;;;;;3.67;2.97;;;18.50;40.90;;;;;;4775887;29;20491;-69
2021/01/25 02:49:32;;;;;;;4.10;3.33;;;18.50;41.50;;;;;;4791667;29;20031;-69
2021/01/25 02:51:58;;;;;;;4.30;3.90;;;18.50;40.90;;;;;;4806617;29;20588;-69
2021/01/25 02:54:24;;;;;;;5.78;3.60;;;18.40;40.80;;;;;;4821831;29;20045;-69
2021/01/25 02:56:49;;;;;;;5.75;3.80;;;18.50;40.90;;;;;;4793538;29;20087;-69
2021/01/25 02:59:15;;;;;;;4.63;3.88;;;18.40;40.80;;;;;;4809878;29;20030;-69
2021/01/25 03:01:44;;;;;;;6.63;3.83;;;18.40;40.80;;;;;;4826956;29;20050;-69
2021/01/25 03:04:10;;;;;;;4.00;3.60;;;18.40;40.80;;;;;;4825869;29;20032;-70
2021/01/25 03:06:35;;;;;;;4.00;3.55;;;18.40;40.80;;;;;;4794170;29;20419;-70
2021/01/25 03:09:04;;;;;;;5.15;3.33;;;18.40;40.90;;;;;;4795267;29;20038;-69
2021/01/25 03:11:30;;;;;;;4.20;3.47;;;18.40;40.80;;;;;;4826550;29;20491;-69
2021/01/25 03:14:06;;;;;;;4.93;3.50;;;18.40;40.90;;;;;;4809800;29;20029;-69
2021/01/25 03:16:31;;;;;;;;;;;18.40;40.90;;;;;;4826421;29;20117;-69
2021/01/25 03:18:57;;;;;;;4.70;3.78;;;18.40;40.80;;;;;;4808784;29;19961;-69
2021/01/25 03:21:22;;;;;;;3.92;3.13;;;18.40;40.90;;;;;;4780119;29;20058;-69
2021/01/25 03:23:48;;;;;;;4.20;3.38;;;18.40;41.00;;;;;;4793031;29;20100;-69
2021/01/25 03:26:14;;;;;;;5.60;4.07;;;18.30;40.90;;;;;;4824941;29;20042;-69
2021/01/25 03:28:40;;;;;;;4.97;4.15;;;18.30;41.00;;;;;;4823751;29;20023;-69
2021/01/25 03:31:05;;;;;;;6.78;3.90;;;18.30;40.90;;;;;;4794180;29;20087;-69
2021/01/25 03:33:31;;;;;;;5.32;4.22;;;18.30;40.90;;;;;;4777476;29;20051;-69
2021/01/25 03:35:56;;;;;;;4.53;3.72;;;18.30;40.90;;;;;;4821511;29;20073;-69
2021/01/25 03:38:22;;;;;;;5.47;3.65;;;18.30;40.90;;;;;;4794155;29;20038;-69
2021/01/25 03:40:48;;;;;;;4.82;3.80;;;18.30;40.90;;;;;;4794678;29;20037;-68
2021/01/25 03:43:14;;;;;;;4.82;3.40;;;18.30;40.90;;;;;;4809516;29;20069;-68
2021/01/25 03:45:40;;;;;;;4.65;3.33;;;18.30;40.90;;;;;;4809459;29;20463;-68
2021/01/25 03:48:06;;;;;;;4.43;3.80;;;18.30;40.90;;;;;;4824535;29;20062;-68
2021/01/25 03:50:32;;;;;;;4.20;3.80;;;18.30;40.90;;;;;;4808917;29;20045;-69
2021/01/25 03:53:02;;;;;;;6.03;4.38;;;18.30;40.90;;;;;;4825522;29;20552;-69
2021/01/25 03:55:27;;;;;;;4.38;3.72;;;18.30;40.90;;;;;;4793628;29;20509;-69
2021/01/25 03:57:53;;;;;;;8.73;4.60;;;18.30;40.90;;;;;;4807641;29;20122;-69
2021/01/25 04:00:19;;;;;;;6.45;4.07;;;18.30;40.90;;;;;;4809684;29;20183;-69
2021/01/25 04:02:45;;;;;;;5.43;4.22;;;18.20;40.90;;;;;;4825752;29;20114;-68
2021/01/25 04:05:10;;;;;;;6.40;4.18;;;18.30;40.90;;;;;;4794214;29;20129;-69
2021/01/25 04:07:36;;;;;;;4.93;4.07;;;18.20;40.90;;;;;;4823714;29;20039;-68
2021/01/25 04:10:03;;;;;;;6.15;4.25;;;18.20;40.90;;;;;;4793244;29;20042;-69
2021/01/25 04:12:28;;;;;;;4.97;3.92;;;18.20;40.90;;;;;;4809149;29;20079;-68
2021/01/25 04:14:54;;;;;;;5.10;4.53;;;18.20;40.90;;;;;;4793612;29;20114;-69
2021/01/25 04:17:19;;;;;;;6.18;4.53;;;18.20;41.00;;;;;;4794597;29;20113;-69
2021/01/25 04:19:45;;;;;;;6.38;3.53;;;18.20;40.90;;;;;;4808508;29;20058;-69
2021/01/25 04:22:11;;;;;;;5.72;4.10;;;18.20;40.90;;;;;;4812518;29;20087;-69
2021/01/25 04:24:36;;;;;;;6.55;4.07;;;18.20;40.90;;;;;;4781655;29;20035;-69
2021/01/25 04:27:02;;;;;;;6.88;3.67;;;18.10;40.90;;;;;;4793399;29;20030;-69
2021/01/25 04:29:28;;;;;;;8.10;4.50;;;18.20;40.90;;;;;;4777569;29;20381;-68
2021/01/25 04:31:53;;;;;;;6.15;4.45;;;18.20;40.90;;;;;;4776996;29;20050;-69
2021/01/25 04:34:19;;;;;;;6.25;4.68;;;18.20;40.90;;;;;;4793121;29;20070;-68
2021/01/25 04:36:44;;;;;;;4.80;3.80;;;18.10;40.80;;;;;;4824825;29;20046;-69
2021/01/25 04:39:10;;;;;;;4.32;3.92;;;18.20;41.60;;;;;;4824513;29;20061;-68
2021/01/25 04:41:35;;;;;;;5.72;4.32;;;18.10;40.90;;;;;;4824784;29;20031;-69
2021/01/25 04:44:01;;;;;;;10.35;4.85;;;18.10;41.60;;;;;;4793688;29;20038;-69
2021/01/25 04:46:27;;;;;;;5.05;4.50;;;18.10;41.00;;;;;;4824952;29;20045;-68
2021/01/25 04:48:52;;;;;;;5.68;4.32;;;18.10;40.90;;;;;;4807935;29;20046;-69
2021/01/25 04:51:18;;;;;;;6.60;4.88;;;18.10;40.90;;;;;;4808642;29;20114;-69
2021/01/25 04:53:44;;;;;;;5.00;3.85;;;18.10;40.90;;;;;;4808779;29;20045;-69
2021/01/25 04:56:10;;;;;;;5.45;4.03;;;18.10;41.00;;;;;;4793630;29;20099;-68
2021/01/25 04:58:36;;;;;;;6.00;4.40;;;18.10;41.00;;;;;;4807998;29;20030;-69
2021/01/25 05:01:17;;;;;;;0.25;0.10;;;18.10;41.00;;;;;;4818039;29;20087;-69
2021/01/25 05:03:42;;;;;;;4.85;4.35;;;18.10;41.30;;;;;;4808417;29;20091;-68
2021/01/25 05:06:08;;;;;;;4.07;3.60;;;18.10;41.40;;;;;;4807809;29;20046;-68
2021/01/25 05:08:33;;;;;;;0.20;0.20;;;18.10;41.40;;;;;;4808053;29;20034;-68
2021/01/25 05:11:10;;;;;;;0.80;0.47;;;18.20;41.50;;;;;;4824476;29;20115;-68
2021/01/25 05:13:36;;;;;;;1.13;0.40;;;18.30;41.30;;;;;;4808153;29;20038;-68
2021/01/25 05:16:02;;;;;;;0.15;0.10;;;18.40;41.00;;;;;;4824805;29;20037;-69
2021/01/25 05:18:28;;;;;;;5.55;4.32;;;18.50;40.90;;;;;;4792670;29;20038;-68
2021/01/25 05:20:55;;;;;;;5.38;1.45;;;18.60;40.60;;;;;;4823186;29;20089;-68
2021/01/25 05:23:21;;;;;;;0.20;0.20;;;18.70;40.30;;;;;;4807295;29;20185;-68
2021/01/25 05:25:47;;;;;;;0.20;0.20;;;18.90;40.10;;;;;;4807232;29;20157;-68
2021/01/25 05:28:17;;;;;;;0.20;0.20;;;19.00;39.80;;;;;;4823509;29;20403;-68
2021/01/25 05:30:43;;;;;;;0.28;0.28;;;19.20;39.60;;;;;;4822731;29;20099;-68
2021/01/25 05:33:08;;;;;;;4.63;4.20;;;19.30;39.30;;;;;;4824178;29;20122;-68
2021/01/25 05:35:34;;;;;;;2.42;0.30;;;19.40;39.10;;;;;;4824318;29;20038;-68
2021/01/25 05:38:04;;;;;;;0.30;0.30;;;19.50;38.80;;;;;;4806850;29;20475;-68
2021/01/25 05:40:31;;;;;;;0.80;0.43;;;19.60;38.60;;;;;;4792439;29;20026;-68
2021/01/25 05:42:57;;;;;;;0.45;0.38;;;19.70;38.40;;;;;;4823908;29;20022;-68
2021/01/25 05:45:24;;;;;;;0.20;0.20;;;19.80;38.20;;;;;;4808328;29;20521;-68
2021/01/25 05:47:57;;;;;;;0.17;0.15;;;19.90;38.00;;;;;;4792626;29;20040;-68
2021/01/25 05:50:24;;;;;;;6.05;5.30;;;20.00;37.90;;;;;;4802292;29;20557;-68
2021/01/25 05:52:51;;;;;;;4.40;3.80;;;20.00;37.80;;;;;;4825260;29;20034;-68
2021/01/25 05:55:16;;;;;;;2.17;0.70;;;20.00;37.80;;;;;;4807078;29;20043;-68
2021/01/25 05:57:42;;;;;;;1.30;0.55;;;20.00;37.70;;;;;;4822997;29;20045;-68
2021/01/25 06:00:08;;;;;;;0.15;0.15;;;20.00;37.70;;;;;;4824924;29;20122;-68
2021/01/25 06:02:34;;;;;;;0.28;0.28;;;20.10;37.70;;;;;;4803236;29;20486;-68
2021/01/25 06:05:00;;;;;;;0.65;0.20;;;20.10;37.70;;;;;;4807780;29;20113;-68
2021/01/25 06:07:26;;;;;;;0.70;0.30;;;20.10;37.70;;;;;;4820064;29;20038;-68
2021/01/25 06:09:52;;;;;;;0.47;0.10;;;20.10;37.80;;;;;;4823225;29;20037;-68
2021/01/25 06:12:22;;;;;;;0.30;0.28;;;20.10;37.80;;;;;;4802688;29;20035;-69
2021/01/25 06:15:09;;;;;;;0.30;0.30;;;20.00;37.80;;;;;;4815769;29;20018;-70
2021/01/25 06:17:35;;;;;;;3.85;3.55;;;20.00;37.80;;;;;;4807858;29;20055;-69
2021/01/25 06:20:04;;;;;;;0.30;0.30;;;20.00;37.90;;;;;;4822745;29;20057;-69
2021/01/25 06:22:30;;;;;;;0.10;0.10;;;20.00;37.80;;;;;;4827428;29;20503;-69
2021/01/25 06:24:59;;;;;;;0.30;0.30;;;20.00;37.90;;;;;;4807451;29;20031;-68
2021/01/25 06:27:25;;;;;;;0.30;0.30;;;20.00;37.90;;;;;;4806189;29;20042;-68
2021/01/25 06:30:04;;;;;;;0.10;0.10;;;20.00;37.90;;;;;;4827100;29;20026;-69
2021/01/25 06:32:34;;;;;;;1.45;0.30;;;20.00;37.90;;;;;;4810215;29;20051;-68
2021/01/25 06:35:49;;;;;;;0.35;0.28;;;20.00;37.90;;;;;;4795464;29;20109;-68
2021/01/25 06:38:49;;;;;;;0.15;0.15;;;20.00;37.90;;;;;;4824219;29;20034;-68
2021/01/25 06:41:15;;;;;;;4.72;4.32;;;20.00;37.90;;;;;;4819323;29;20030;-68
2021/01/25 06:43:42;;;;;;;0.95;0.68;;;20.00;38.00;;;;;;4809705;29;20042;-69
2021/01/25 06:46:08;;;;;;;0.38;0.38;;;20.00;38.00;;;;;;4808602;29;20075;-69
2021/01/25 06:48:34;;;;;;;0.70;0.30;;;20.00;37.90;;;;;;4825812;29;20034;-68
2021/01/25 06:51:00;;;;;;;0.57;0.17;;;20.00;37.90;;;;;;4809490;29;20041;-68
2021/01/25 06:53:26;;;;;;;0.98;0.63;;;20.00;38.00;;;;;;4809329;29;20050;-73
2021/01/25 06:56:00;;;;;;;0.40;0.40;;;20.10;39.20;;;;;;4810785;29;20045;-69
2021/01/25 06:58:29;;;;;;;0.17;0.17;;;20.10;38.50;;;;;;4809451;29;20155;-69
2021/01/25 07:00:55;;;;;;;0.88;0.85;;;20.20;38.30;;;;;;4825104;29;20057;-69
2021/01/25 07:03:21;;;;;;;0.13;0.10;;;20.20;38.10;;;;;;4795505;29;20072;-69
2021/01/25 07:05:48;;;;;;;0.40;0.10;;;20.20;38.10;;;;;;4809541;29;20050;-69
2021/01/25 07:08:24;;;;;;;0.30;0.30;;;20.20;38.00;;;;;;4809821;29;20065;-69
2021/01/25 07:10:49;;;;;;;0.00;0.00;;;20.10;38.00;;;;;;4796138;29;20175;-69
2021/01/25 07:13:15;;;;;;;0.03;0.00;;;20.20;38.00;;;;;;4826465;29;20436;-69
2021/01/25 07:15:41;;;;;;;0.10;0.10;;;20.20;37.90;;;;;;4813387;29;20101;-69
2021/01/25 07:18:07;;;;;;;0.32;0.32;;;20.10;38.00;;;;;;4796133;29;20123;-69
2021/01/25 07:20:32;;;;;;;0.25;0.25;;;20.10;38.00;;;;;;4809277;29;20046;-69
2021/01/25 07:22:58;;;;;;;0.13;0.13;;;20.10;37.90;;;;;;4809932;29;20034;-69
2021/01/25 07:25:27;;;;;;;0.65;0.20;;;20.20;38.00;;;;;;4825104;29;20030;-69
2021/01/25 07:27:54;;;;;;;7.25;0.50;;;20.20;38.00;;;;;;4810328;29;20042;-69
2021/01/25 07:30:19;;;;;;;0.35;0.20;;;20.20;39.00;;;;;;4795023;29;20026;-68
2021/01/25 07:32:46;;;;;;;0.35;0.13;;;20.20;38.30;;;;;;4820289;29;20095;-68
2021/01/25 07:35:12;;;;;;;0.22;0.22;;;20.20;38.20;;;;;;4822733;29;20495;-69
2021/01/25 07:37:37;;;;;;;0.10;0.10;;;20.20;38.20;;;;;;4817205;29;20065;-69
2021/01/25 07:40:03;;;;;;;1.17;0.43;;;20.10;38.10;;;;;;4807702;29;20515;-69
2021/01/25 07:42:29;;;;;;;0.68;0.57;;;20.10;38.20;;;;;;4824236;29;20117;-69
2021/01/25 07:44:55;;;;;;;0.35;0.32;;;20.10;38.20;;;;;;4794520;29;20113;-69
2021/01/25 07:47:20;;;;;;;1.58;0.47;;;20.10;38.20;;;;;;4778803;29;20042;-69
2021/01/25 07:49:46;;;;;;;0.38;0.38;;;20.10;38.20;;;;;;4809893;29;20092;-69
2021/01/25 07:52:16;;;;;;;0.10;0.10;;;20.10;38.10;;;;;;4793733;29;20057;-69
2021/01/25 07:54:42;;;;;;;1.65;0.60;;;20.10;38.20;;;;;;4807842;29;20036;-68
2021/01/25 07:57:13;;;;;;;0.10;0.10;;;20.10;38.20;;;;;;4825181;29;20045;-68
2021/01/25 07:59:39;;;;;;;0.30;0.30;;;20.20;39.10;;;;;;4808547;29;20376;-69
2021/01/25 08:02:10;;;;;;;0.22;0.22;;;20.10;38.80;;;;;;4824657;29;20050;-68
2021/01/25 08:04:39;;;;;;;0.30;0.30;;;20.10;38.70;;;;;;4808313;29;20027;-68
2021/01/25 08:07:04;;;;;;;1.45;0.75;;;20.10;38.70;;;;;;4821649;29;20072;-69
2021/01/25 08:09:31;;;;;;;0.85;0.68;;;20.10;38.70;;;;;;4795442;29;20065;-69
2021/01/25 08:11:58;;;;;;;0.80;0.70;;;20.10;38.60;;;;;;4793757;29;20070;-68
2021/01/25 08:14:32;;;;;;;0.60;0.50;;;20.20;38.50;;;;;;4793922;29;20031;-68
2021/01/25 08:17:00;;;;;;;0.35;0.35;;;20.20;38.50;;;;;;4822116;29;20168;-68
2021/01/25 08:19:47;;;;;;;1.00;0.20;;;20.20;38.50;;;;;;4824653;29;20070;-69
2021/01/25 08:22:22;;;;;;;2.30;1.10;;;20.20;38.40;;;;;;4797645;29;20054;-68
2021/01/25 08:24:57;;;;;;;7.20;6.15;;;20.20;38.90;;;;;;4793758;29;20105;-68
2021/01/25 08:27:23;;;;;;;0.50;0.50;;;20.20;38.40;;;;;;4799042;29;20039;-77
2021/01/25 08:29:50;;;;;;;0.73;0.55;;;20.20;38.30;;;;;;4793616;29;20037;-77
2021/01/25 08:32:23;;;;;;;0.98;0.75;;;20.20;38.60;;;;;;4793646;29;20034;-77
2021/01/25 08:34:59;;;;;;;1.25;0.77;;;20.30;38.70;;;;;;4807951;29;20076;-77
2021/01/25 08:37:30;;;;;;;7.97;5.85;;;20.30;38.60;;;;;;4808543;29;20515;-77
2021/01/25 08:39:56;;;;;;;0.85;0.50;;;20.30;38.50;;;;;;4804934;29;20038;-77
2021/01/25 08:42:30;;;;;;;0.65;0.63;;;20.40;38.40;;;;;;4808847;29;20043;-77
2021/01/25 08:45:25;;;;;;;9.95;8.05;;;20.40;38.20;;;;;;4798132;29;20088;-77
2021/01/25 08:47:51;;;;;;;0.57;0.50;;;20.40;38.10;;;;;;4748280;30;20540;-78
2021/01/25 08:50:25;;;;;;;2.47;1.00;;;20.40;38.00;;;;;;4775641;30;20049;-78
2021/01/25 08:53:10;;;;;;;0.28;0.28;;;20.40;38.60;;;;;;4773044;30;20127;-78
2021/01/25 08:56:02;;;;;;;12.95;9.65;;;20.40;38.60;;;;;;4768448;29;20066;-78
2021/01/25 08:58:32;;;;;;;0.73;0.65;;;20.40;37.90;;;;;;4767895;30;20040;-78
2021/01/25 09:00:58;;;;;;;0.40;0.35;;;20.40;37.80;;;;;;4768004;30;20028;-78
2021/01/25 09:03:24;;;;;;;11.13;6.20;;;20.40;37.80;;;;;;4753245;30;20044;-78
2021/01/25 09:05:55;;;;;;;17.15;11.65;;;20.40;37.80;;;;;;4753178;30;20549;-79
2021/01/25 09:08:21;;;;;;;0.98;0.60;;;20.40;37.80;;;;;;4767611;30;20035;-78
2021/01/25 09:10:47;;;;;;;2.20;1.17;;;20.40;37.70;;;;;;4774858;30;20074;-79
2021/01/25 09:13:13;;;;;;;24.77;16.38;;;20.40;37.70;;;;;;4768557;30;20036;-69
2021/01/25 09:15:39;;;;;;;1.00;0.45;;;20.40;37.70;;;;;;4768739;30;20036;-69
2021/01/25 09:18:07;;;;;;;2.05;0.70;;;20.40;37.70;;;;;;4753294;30;20130;-69
2021/01/25 09:20:32;;;;;;;0.90;0.57;;;20.40;37.70;;;;;;4753885;30;20059;-69
2021/01/25 09:23:10;;;;;;;20.25;13.25;;;20.40;37.70;;;;;;4753662;30;20048;-69
2021/01/25 09:25:35;;;;;;;2.75;0.90;;;20.40;37.70;;;;;;4788702;29;20420;-79
2021/01/25 09:28:01;;;;;;;3.63;1.33;;;20.40;37.70;;;;;;4808922;29;20035;-79
2021/01/25 09:30:36;;;;;;;16.83;12.93;;;20.30;37.60;;;;;;4813845;29;20026;-79
2021/01/25 09:33:01;;;;;;;3.50;1.40;;;20.40;38.10;;;;;;4801664;29;20030;-79
2021/01/25 09:35:27;;;;;;;1.67;0.95;;;20.40;38.60;;;;;;4788883;29;20130;-78
2021/01/25 09:37:52;;;;;;;4.00;1.60;;;20.40;38.40;;;;;;4788988;29;20516;-78
2021/01/25 09:40:19;;;;;;;14.95;11.13;;;20.40;38.00;;;;;;4774771;29;20118;-78
2021/01/25 09:42:45;;;;;;;2.83;1.70;;;20.50;38.00;;;;;;4804891;29;20038;-78
2021/01/25 09:45:12;;;;;;;1.48;0.90;;;20.50;38.00;;;;;;4808491;29;20031;-78
2021/01/25 09:47:38;;;;;;;4.13;2.90;;;20.50;37.80;;;;;;4774299;29;20034;-78
2021/01/25 09:50:04;;;;;;;12.30;9.20;;;20.50;37.70;;;;;;4803418;29;20039;-78
2021/01/25 09:52:33;;;;;;;0.68;0.68;;;20.50;37.80;;;;;;4801409;29;20051;-79
2021/01/25 09:54:58;;;;;;;1.05;0.90;;;20.50;37.80;;;;;;4789836;29;20507;-79
2021/01/25 09:57:24;;;;;;;0.90;0.90;;;20.40;37.70;;;;;;4774847;29;20030;-78
2021/01/25 09:59:50;;;;;;;15.40;12.20;;;20.40;37.60;;;;;;4805409;29;20031;-79
2021/01/25 10:02:15;;;;;;;1.90;1.27;;;20.40;37.70;;;;;;4804862;29;20480;-78
2021/01/25 10:04:41;;;;;;;1.75;1.20;;;20.40;37.60;;;;;;4822830;29;20139;-78
2021/01/25 10:07:06;;;;;;;1.17;0.45;;;20.40;37.70;;;;;;4802309;29;20053;-77
2021/01/25 10:09:32;;;;;;;1.45;0.88;;;20.40;37.70;;;;;;4805156;29;20030;-78
2021/01/25 10:12:04;;;;;;;19.17;15.07;;;20.40;37.50;;;;;;4804324;29;20023;-78
2021/01/25 10:14:32;;;;;;;15.95;8.55;;;20.40;37.60;;;;;;4788216;29;20027;-78
2021/01/25 10:16:57;;;;;;;2.22;1.15;;;20.40;37.70;;;;;;4805904;29;20039;-78
2021/01/25 10:19:23;;;;;;;1.95;1.27;;;20.40;37.60;;;;;;4809348;29;20042;-77
2021/01/25 10:21:56;;;;;;;11.73;6.03;;;20.40;37.60;;;;;;4806826;29;20111;-77
2021/01/25 10:24:21;;;;;;;12.10;9.27;;;20.40;37.60;;;;;;4804189;29;20040;-77
2021/01/25 10:26:47;;;;;;;0.98;0.63;;;20.40;37.70;;;;;;4822979;29;20109;-77
2021/01/25 10:29:12;;;;;;;1.95;1.25;;;20.30;38.00;;;;;;4823585;29;20084;-77
2021/01/25 10:31:38;;;;;;;1.67;1.15;;;20.30;37.90;;;;;;4806642;29;20085;-78
2021/01/25 10:34:03;;;;;;;15.25;12.48;;;20.30;37.80;;;;;;4822243;29;20038;-77
2021/01/25 10:36:29;;;;;;;0.52;0.52;;;20.30;37.80;;;;;;4840785;29;20061;-77
2021/01/25 10:38:55;;;;;;;1.75;1.35;;;20.30;38.00;;;;;;4823663;29;20154;-77
2021/01/25 10:41:58;;;;;;;2.72;1.25;;;20.30;38.00;;;;;;4813682;29;20035;-79
2021/01/25 10:44:35;;;;;;;2.70;1.50;;;20.30;37.80;;;;;;4827749;29;20037;-78
2021/01/25 10:47:01;;;;;;;12.32;10.25;;;20.20;37.80;;;;;;4830815;29;20037;-79
2021/01/25 10:49:26;;;;;;;0.57;0.45;;;20.20;37.90;;;;;;4819676;29;20034;-79
2021/01/25 10:51:52;;;;;;;1.20;0.73;;;20.20;37.90;;;;;;4804631;29;20411;-78
2021/01/25 10:54:22;;;;;;;1.88;1.60;;;20.30;37.80;;;;;;4822442;29;20055;-78
2021/01/25 10:56:48;;;;;;;15.05;12.13;;;20.20;37.90;;;;;;4808658;29;20399;-78
2021/01/25 10:59:14;;;;;;;2.42;1.40;;;20.20;37.80;;;;;;4822363;29;20054;-78
2021/01/25 11:01:40;;;;;;;18.20;13.57;;;20.30;37.80;;;;;;4822780;29;20040;-77
2021/01/25 11:04:05;;;;;;;15.20;12.20;;;20.30;37.80;;;;;;4807234;29;20081;-79
2021/01/25 11:06:31;;;;;;;1.08;0.77;;;20.30;37.90;;;;;;4823161;29;20396;-78
2021/01/25 11:08:56;;;;;;;1.05;0.35;;;20.20;37.80;;;;;;4822856;29;20044;-78
2021/01/25 11:11:22;;;;;;;1.05;0.90;;;20.30;37.80;;;;;;4821445;29;20033;-78
2021/01/25 11:13:47;;;;;;;2.25;1.38;;;20.30;37.70;;;;;;4822775;29;20491;-78
2021/01/25 11:16:13;;;;;;;15.05;12.30;;;20.30;37.70;;;;;;4822582;29;20034;-78
2021/01/25 11:18:38;;;;;;;1.35;0.45;;;20.30;37.70;;;;;;4806848;29;20580;-78
2021/01/25 11:21:04;;;;;;;1.75;1.15;;;20.30;38.10;;;;;;4825295;29;20078;-78
2021/01/25 11:23:30;;;;;;;1.70;0.77;;;20.30;38.20;;;;;;4808686;29;20496;-78
2021/01/25 11:25:56;;;;;;;0.63;0.60;;;20.30;38.20;;;;;;4824926;29;20040;-78
2021/01/25 11:28:22;;;;;;;2.35;0.80;;;20.30;38.10;;;;;;4823556;29;20034;-78
2021/01/25 11:30:48;;;;;;;0.55;0.22;;;20.30;38.10;;;;;;4834815;29;20022;-79
2021/01/25 11:33:13;;;;;;;0.47;0.45;;;20.30;38.60;;;;;;4794281;29;20030;-78
2021/01/25 11:35:39;;;;;;;0.82;0.80;;;20.30;38.40;;;;;;4808722;29;20034;-78
2021/01/25 11:38:05;;;;;;;2.05;0.90;;;20.30;38.10;;;;;;4809283;29;20038;-78
2021/01/25 11:40:30;;;;;;;1.42;1.08;;;20.30;38.10;;;;;;4824979;29;20026;-79
2021/01/25 11:42:56;;;;;;;1.30;0.75;;;20.30;38.20;;;;;;4823629;29;20041;-78
2021/01/25 11:45:40;;;;;;;0.70;0.65;;;20.30;38.10;;;;;;4823495;29;20380;-78
2021/01/25 11:48:06;;;;;;;0.68;0.68;;;20.30;38.00;;;;;;4824517;29;20415;-78
2021/01/25 11:50:32;;;;;;;2.55;1.40;;;20.30;37.90;;;;;;4808610;29;20034;-79
2021/01/25 11:52:57;;;;;;;2.60;1.70;;;20.30;38.00;;;;;;4808633;29;20029;-79
2021/01/25 11:55:23;;;;;;;0.57;0.57;;;20.30;38.10;;;;;;4824756;29;20022;-79
2021/01/25 11:57:48;;;;;;;0.50;0.50;;;20.20;38.00;;;;;;4807932;29;20042;-78
2021/01/25 12:00:17;;;;;;;2.92;1.23;;;20.30;37.90;;;;;;4807202;29;20476;-78
2021/01/25 12:02:44;;;;;;;3.60;1.63;;;20.30;37.90;;;;;;4808871;29;20031;-79
2021/01/25 12:05:10;;;;;;;0.47;0.38;;;20.30;38.00;;;;;;4808635;29;20070;-78
2021/01/25 12:07:36;;;;;;;1.33;1.00;;;20.30;38.00;;;;;;4808801;29;20047;-78
2021/01/25 12:10:02;;;;;;;0.75;0.63;;;20.30;37.90;;;;;;4806855;29;20031;-78
2021/01/25 12:12:27;;;;;;;1.17;1.08;;;20.30;38.50;;;;;;4824896;29;20099;-78
2021/01/25 12:14:53;;;;;;;2.67;1.52;;;20.30;39.30;;;;;;4808574;29;20117;-78
2021/01/25 12:17:18;;;;;;;0.98;0.25;;;20.30;40.70;;;;;;4824656;29;20026;-78
2021/01/25 12:19:44;;;;;;;1.63;0.95;;;20.30;40.90;;;;;;4807027;29;20115;-78
2021/01/25 12:22:09;;;;;;;1.38;1.25;;;20.40;41.00;;;;;;4830167;29;20041;-78
2021/01/25 12:24:35;;;;;;;2.28;1.30;;;20.40;40.10;;;;;;4808449;29;20050;-70
2021/01/25 12:27:01;;;;;;;1.00;0.70;;;20.50;43.90;;;;;;4794119;29;20072;-70
2021/01/25 12:29:26;;;;;;;0.95;0.60;;;20.60;43.10;;;;;;4793612;29;20038;-76
2021/01/25 12:31:52;;;;;;;3.42;0.90;;;20.60;41.30;;;;;;4826367;29;20066;-76
2021/01/25 12:34:17;;;;;;;1.02;0.85;;;20.60;40.60;;;;;;4813204;29;20035;-75
2021/01/25 12:36:43;;;;;;;0.90;0.70;;;20.60;40.10;;;;;;4807334;29;20571;-75
2021/01/25 12:39:08;;;;;;;0.30;0.30;;;20.50;39.70;;;;;;4824557;29;20099;-75
2021/01/25 12:41:34;;;;;;;1.48;0.68;;;20.50;39.50;;;;;;4820594;29;20042;-75
2021/01/25 12:44:01;;;;;;;1.08;0.98;;;20.50;38.90;;;;;;4807870;29;20038;-74
2021/01/25 12:46:27;;;;;;;0.73;0.43;;;20.40;39.00;;;;;;4843268;29;20062;-74